createdAt,value
2019-02-16T00:00:35.022Z,4.50
2019-02-16T00:01:34.987Z,4.80
2019-02-16T00:02:35.174Z,4.80
2019-02-16T00:03:34.979Z,5.10
2019-02-16T00:04:34.967Z,5.20
2019-02-16T00:05:34.990Z,4.80
2019-02-16T00:06:34.955Z,4.50
2019-02-16T00:07:34.946Z,5.40
2019-02-16T00:08:35.148Z,5.20
2019-02-16T00:09:34.935Z,4.90
2019-02-16T00:10:34.949Z,4.90
2019-02-16T00:11:34.925Z,4.70
2019-02-16T00:12:35.123Z,4.90
2019-02-16T00:13:34.909Z,5.50
2019-02-16T00:14:34.898Z,5.40
2019-02-16T00:15:34.924Z,5.60
2019-02-16T00:16:34.895Z,5.30
2019-02-16T00:17:34.885Z,5.40
2019-02-16T00:18:34.882Z,5.30
2019-02-16T00:19:34.884Z,5.00
2019-02-16T00:20:34.893Z,5.00
2019-02-16T00:21:34.878Z,5.20
2019-02-16T00:22:34.863Z,4.80
2019-02-16T00:23:34.860Z,5.10
2019-02-16T00:24:34.842Z,4.60
2019-02-16T00:25:35.048Z,4.90
2019-02-16T00:26:34.836Z,5.40
2019-02-16T00:27:35.043Z,5.20
2019-02-16T00:28:34.835Z,4.90
2019-02-16T00:29:34.818Z,5.20
2019-02-16T00:30:34.814Z,5.30
2019-02-16T00:31:34.820Z,5.20
2019-02-16T00:32:34.811Z,5.30
2019-02-16T00:33:34.803Z,4.90
2019-02-16T00:34:34.788Z,5.30
2019-02-16T00:35:34.786Z,5.60
2019-02-16T00:36:34.774Z,5.30
2019-02-16T00:37:34.789Z,5.00
2019-02-16T00:38:34.775Z,5.60
2019-02-16T00:39:34.772Z,5.40
2019-02-16T00:40:34.761Z,5.10
2019-02-16T00:41:34.973Z,5.80
2019-02-16T00:42:34.740Z,5.80
2019-02-16T00:43:34.945Z,5.50
2019-02-16T00:44:34.748Z,5.20
2019-02-16T00:45:34.726Z,5.80
2019-02-16T00:46:34.957Z,5.50
2019-02-16T00:47:34.709Z,5.40
2019-02-16T00:48:34.700Z,5.50
2019-02-16T00:49:34.698Z,5.40
2019-02-16T00:50:34.694Z,5.70
2019-02-16T00:51:34.689Z,5.70
2019-02-16T00:52:34.681Z,5.00
2019-02-16T00:53:34.691Z,6.20
2019-02-16T00:54:34.666Z,5.50
2019-02-16T00:55:34.664Z,5.70
2019-02-16T00:56:34.875Z,5.50
2019-02-16T00:57:34.660Z,5.10
2019-02-16T00:58:34.660Z,5.70
2019-02-16T00:59:34.643Z,5.70
2019-02-16T01:00:34.687Z,5.50
2019-02-16T01:01:34.627Z,5.10
2019-02-16T01:02:34.613Z,5.50
2019-02-16T01:03:34.615Z,5.40
2019-02-16T01:04:34.628Z,6.10
2019-02-16T01:05:34.608Z,6.00
2019-02-16T01:06:34.592Z,5.60
2019-02-16T01:07:34.590Z,5.90
2019-02-16T01:08:34.586Z,5.90
2019-02-16T01:09:34.792Z,5.70
2019-02-16T01:10:34.596Z,5.90
2019-02-16T01:11:34.782Z,5.40
2019-02-16T01:12:34.557Z,6.00
2019-02-16T01:13:34.569Z,5.90
2019-02-16T01:14:34.563Z,5.50
2019-02-16T01:15:34.543Z,5.90
2019-02-16T01:16:34.545Z,5.50
2019-02-16T01:17:34.530Z,5.60
2019-02-16T01:18:34.519Z,5.80
2019-02-16T01:19:34.715Z,6.20
2019-02-16T01:20:34.515Z,5.70
2019-02-16T01:21:34.715Z,6.40
2019-02-16T01:22:34.496Z,6.20
2019-02-16T01:23:34.688Z,5.90
2019-02-16T01:24:34.493Z,6.20
2019-02-16T01:25:34.481Z,6.20
2019-02-16T01:26:34.495Z,5.70
2019-02-16T01:27:34.480Z,6.40
2019-02-16T01:28:34.477Z,5.60
2019-02-16T01:29:34.459Z,5.80
2019-02-16T01:30:34.457Z,5.80
2019-02-16T01:31:34.443Z,6.40
2019-02-16T01:32:34.436Z,5.90
2019-02-16T01:33:34.428Z,6.20
2019-02-16T01:34:34.422Z,6.40
2019-02-16T01:35:34.419Z,6.10
2019-02-16T01:36:34.408Z,5.90
2019-02-16T01:37:34.402Z,6.30
2019-02-16T01:38:34.395Z,5.70
2019-02-16T01:39:34.393Z,5.70
2019-02-16T01:40:34.386Z,6.20
2019-02-16T01:41:34.592Z,5.70
2019-02-16T01:42:34.581Z,5.90
2019-02-16T01:43:34.380Z,5.90
2019-02-16T01:44:34.374Z,5.30
2019-02-16T01:45:34.359Z,5.70
2019-02-16T01:46:34.365Z,6.10
2019-02-16T01:47:34.348Z,6.20
2019-02-16T01:48:34.355Z,6.00
2019-02-16T01:49:34.331Z,5.70
2019-02-16T01:50:34.536Z,6.10
2019-02-16T01:51:34.314Z,6.00
2019-02-16T01:52:34.330Z,6.00
2019-02-16T01:53:34.535Z,5.30
2019-02-16T01:54:34.296Z,5.80
2019-02-16T01:55:34.487Z,6.50
2019-02-16T01:56:34.301Z,6.20
2019-02-16T01:57:34.289Z,6.20
2019-02-16T01:58:34.269Z,5.80
2019-02-16T01:59:34.271Z,5.40
2019-02-16T02:00:34.258Z,6.00
2019-02-16T02:01:34.461Z,6.00
2019-02-16T02:02:34.463Z,5.70
2019-02-16T02:03:34.235Z,5.50
2019-02-16T02:04:34.436Z,5.50
2019-02-16T02:05:34.425Z,5.40
2019-02-16T02:06:34.208Z,5.70
2019-02-16T02:07:34.412Z,5.90
2019-02-16T02:08:34.195Z,5.80
2019-02-16T02:09:34.204Z,5.80
2019-02-16T02:10:34.189Z,5.70
2019-02-16T02:11:34.183Z,5.30
2019-02-16T02:12:34.182Z,5.80
2019-02-16T02:13:34.187Z,6.00
2019-02-16T02:14:34.363Z,5.20
2019-02-16T02:15:34.157Z,6.00
2019-02-16T02:16:34.164Z,6.10
2019-02-16T02:17:34.144Z,6.40
2019-02-16T02:18:34.160Z,6.60
2019-02-16T02:19:34.131Z,6.20
2019-02-16T02:20:34.123Z,6.30
2019-02-16T02:21:41.001Z,6.30
2019-02-16T02:22:34.317Z,6.30
2019-02-16T02:23:34.109Z,6.40
2019-02-16T02:24:34.092Z,6.40
2019-02-16T02:25:34.090Z,6.70
2019-02-16T02:26:34.075Z,6.90
2019-02-16T02:27:34.081Z,6.20
2019-02-16T02:28:34.066Z,6.70
2019-02-16T02:29:34.083Z,6.80
2019-02-16T02:30:34.061Z,7.80
2019-02-16T02:31:34.055Z,7.40
2019-02-16T02:32:34.041Z,7.20
2019-02-16T02:33:34.227Z,7.40
2019-02-16T02:34:34.223Z,7.40
2019-02-16T02:35:34.012Z,7.50
2019-02-16T02:36:34.001Z,7.90
2019-02-16T02:37:34.209Z,7.20
2019-02-16T02:38:34.022Z,7.30
2019-02-16T02:39:33.995Z,6.70
2019-02-16T02:40:33.988Z,6.50
2019-02-16T02:41:34.171Z,7.20
2019-02-16T02:42:33.965Z,6.90
2019-02-16T02:43:33.958Z,7.60
2019-02-16T02:44:33.948Z,6.80
2019-02-16T02:45:33.947Z,7.20
2019-02-16T02:46:33.931Z,7.10
2019-02-16T02:47:33.919Z,7.20
2019-02-16T02:48:33.929Z,7.30
2019-02-16T02:49:34.126Z,7.30
2019-02-16T02:50:33.913Z,6.90
2019-02-16T02:51:34.100Z,7.30
2019-02-16T02:52:33.900Z,8.20
2019-02-16T02:53:34.086Z,7.60
2019-02-16T02:54:34.075Z,7.80
2019-02-16T02:55:33.879Z,7.90
2019-02-16T02:56:33.870Z,7.50
2019-02-16T02:57:33.853Z,7.20
2019-02-16T02:58:33.856Z,6.70
2019-02-16T02:59:34.033Z,7.00
2019-02-16T03:00:33.877Z,7.20
2019-02-16T03:01:34.060Z,6.90
2019-02-16T03:02:34.015Z,7.50
2019-02-16T03:03:33.797Z,6.80
2019-02-16T03:04:33.823Z,7.40
2019-02-16T03:05:33.785Z,6.80
2019-02-16T03:06:33.792Z,7.10
2019-02-16T03:07:33.778Z,7.20
2019-02-16T03:08:33.779Z,7.80
2019-02-16T03:09:33.760Z,8.10
2019-02-16T03:10:33.769Z,7.10
2019-02-16T03:11:33.805Z,7.60
2019-02-16T03:12:33.744Z,8.20
2019-02-16T03:13:33.933Z,7.20
2019-02-16T03:14:33.721Z,6.70
2019-02-16T03:15:33.715Z,7.60
2019-02-16T03:16:33.708Z,6.50
2019-02-16T03:17:33.702Z,6.90
2019-02-16T03:18:33.682Z,7.10
2019-02-16T03:19:33.681Z,7.00
2019-02-16T03:20:33.687Z,7.20
2019-02-16T03:21:33.692Z,6.90
2019-02-16T03:22:33.667Z,6.80
2019-02-16T03:23:33.665Z,7.20
2019-02-16T03:24:33.654Z,7.30
2019-02-16T03:25:33.639Z,7.30
2019-02-16T03:26:33.633Z,7.70
2019-02-16T03:27:33.832Z,7.70
2019-02-16T03:28:33.616Z,8.60
2019-02-16T03:29:33.599Z,9.00
2019-02-16T03:30:33.820Z,9.30
2019-02-16T03:31:33.792Z,8.00
2019-02-16T03:32:33.803Z,8.80
2019-02-16T03:33:33.574Z,8.50
2019-02-16T03:34:33.780Z,8.70
2019-02-16T03:35:33.559Z,8.70
2019-02-16T03:36:33.543Z,8.40
2019-02-16T03:37:33.546Z,8.40
2019-02-16T03:38:33.729Z,8.50
2019-02-16T03:39:33.540Z,7.90
2019-02-16T03:40:33.534Z,7.40
2019-02-16T03:41:33.524Z,7.60
2019-02-16T03:42:33.506Z,7.90
2019-02-16T03:43:33.510Z,7.50
2019-02-16T03:44:33.481Z,7.70
2019-02-16T03:45:33.492Z,8.30
2019-02-16T03:46:33.480Z,7.60
2019-02-16T03:47:33.463Z,8.20
2019-02-16T03:48:33.478Z,6.90
2019-02-16T03:49:33.449Z,7.10
2019-02-16T03:50:33.453Z,6.80
2019-02-16T03:51:33.460Z,7.90
2019-02-16T03:52:33.425Z,7.90
2019-02-16T03:53:33.429Z,8.20
2019-02-16T03:54:33.409Z,8.30
2019-02-16T03:55:33.603Z,7.80
2019-02-16T03:56:33.594Z,7.40
2019-02-16T03:57:33.587Z,7.20
2019-02-16T03:58:33.381Z,7.30
2019-02-16T03:59:33.375Z,6.90
2019-02-16T04:00:33.353Z,6.90
2019-02-16T04:01:33.349Z,7.30
2019-02-16T04:02:33.365Z,6.40
2019-02-16T04:03:33.344Z,7.20
2019-02-16T04:04:33.322Z,6.70
2019-02-16T04:05:33.319Z,7.20
2019-02-16T04:06:33.336Z,7.00
2019-02-16T04:07:33.308Z,7.80
2019-02-16T04:08:33.290Z,6.90
2019-02-16T04:09:33.295Z,6.90
2019-02-16T04:10:33.488Z,7.40
2019-02-16T04:11:33.278Z,6.90
2019-02-16T04:12:33.276Z,7.50
2019-02-16T04:13:33.254Z,7.40
2019-02-16T04:14:33.242Z,8.10
2019-02-16T04:15:33.234Z,8.40
2019-02-16T04:16:33.247Z,8.80
2019-02-16T04:17:33.432Z,8.00
2019-02-16T04:18:33.220Z,8.20
2019-02-16T04:19:33.222Z,8.10
2019-02-16T04:20:33.203Z,8.50
2019-02-16T04:21:33.201Z,7.50
2019-02-16T04:22:33.207Z,8.00
2019-02-16T04:23:33.185Z,7.50
2019-02-16T04:24:33.181Z,8.20
2019-02-16T04:25:33.165Z,7.60
2019-02-16T04:26:33.145Z,7.70
2019-02-16T04:27:33.147Z,8.30
2019-02-16T04:28:33.123Z,7.70
2019-02-16T04:29:33.138Z,7.90
2019-02-16T04:30:33.328Z,7.90
2019-02-16T04:31:33.305Z,7.50
2019-02-16T04:32:33.106Z,7.20
2019-02-16T04:33:33.103Z,7.90
2019-02-16T04:34:33.086Z,7.60
2019-02-16T04:35:33.284Z,8.20
2019-02-16T04:36:33.063Z,7.20
2019-02-16T04:37:33.071Z,8.10
2019-02-16T04:38:33.043Z,8.30
2019-02-16T04:39:33.038Z,7.90
2019-02-16T04:40:33.047Z,8.40
2019-02-16T04:41:33.228Z,8.20
2019-02-16T04:42:33.022Z,8.30
2019-02-16T04:43:33.220Z,9.10
2019-02-16T04:44:32.993Z,8.40
2019-02-16T04:45:32.988Z,8.60
2019-02-16T04:46:32.991Z,8.50
2019-02-16T04:47:32.974Z,8.50
2019-02-16T04:48:32.967Z,8.80
2019-02-16T04:49:33.155Z,9.00
2019-02-16T04:50:32.961Z,8.90
2019-02-16T04:51:32.940Z,8.50
2019-02-16T04:52:35.053Z,9.10
2019-02-16T04:53:32.925Z,8.80
2019-02-16T04:54:32.915Z,8.50
2019-02-16T04:55:33.127Z,8.60
2019-02-16T04:56:32.915Z,8.80
2019-02-16T04:57:33.097Z,8.10
2019-02-16T04:58:32.883Z,8.20
2019-02-16T04:59:32.891Z,8.40
2019-02-16T05:00:32.875Z,8.70
2019-02-16T05:01:32.859Z,7.90
2019-02-16T05:02:33.049Z,8.30
2019-02-16T05:03:32.853Z,8.70
2019-02-16T05:04:33.050Z,8.50
2019-02-16T05:05:32.847Z,8.00
2019-02-16T05:06:33.038Z,7.30
2019-02-16T05:07:32.807Z,8.00
2019-02-16T05:08:33.019Z,7.70
2019-02-16T05:09:32.799Z,8.30
2019-02-16T05:10:32.783Z,7.00
2019-02-16T05:11:32.787Z,7.70
2019-02-16T05:12:32.767Z,7.70
2019-02-16T05:13:32.762Z,8.30
2019-02-16T05:14:32.756Z,8.10
2019-02-16T05:15:32.744Z,7.90
2019-02-16T05:16:32.733Z,8.40
2019-02-16T05:17:32.731Z,8.50
2019-02-16T05:18:32.727Z,7.90
2019-02-16T05:19:32.740Z,7.80
2019-02-16T05:20:32.899Z,7.50
2019-02-16T05:21:32.721Z,8.10
2019-02-16T05:22:32.694Z,8.00
2019-02-16T05:23:32.693Z,7.80
2019-02-16T05:24:32.692Z,7.50
2019-02-16T05:25:32.676Z,8.00
2019-02-16T05:26:32.655Z,7.50
2019-02-16T05:27:32.648Z,7.20
2019-02-16T05:28:32.637Z,7.40
2019-02-16T05:29:32.846Z,7.70
2019-02-16T05:30:32.630Z,7.80
2019-02-16T05:31:32.608Z,7.40
2019-02-16T05:32:32.628Z,7.70
2019-02-16T05:33:32.604Z,7.90
2019-02-16T05:34:32.597Z,8.50
2019-02-16T05:35:32.581Z,8.20
2019-02-16T05:36:32.569Z,8.30
2019-02-16T05:37:32.565Z,8.20
2019-02-16T05:38:32.764Z,8.60
2019-02-16T05:39:32.551Z,8.60
2019-02-16T05:40:32.546Z,7.80
2019-02-16T05:41:32.533Z,7.60
2019-02-16T05:42:32.737Z,8.00
2019-02-16T05:43:32.539Z,8.10
2019-02-16T05:44:32.712Z,8.30
2019-02-16T05:45:32.514Z,8.30
2019-02-16T05:46:32.497Z,8.90
2019-02-16T05:47:32.689Z,8.40
2019-02-16T05:48:32.486Z,7.90
2019-02-16T05:49:32.664Z,7.30
2019-02-16T05:50:32.661Z,7.50
2019-02-16T05:51:32.454Z,7.90
2019-02-16T05:52:32.654Z,7.40
2019-02-16T05:53:32.434Z,7.60
2019-02-16T05:54:32.436Z,7.50
2019-02-16T05:55:32.406Z,7.70
2019-02-16T05:56:32.427Z,8.10
2019-02-16T05:57:32.405Z,7.20
2019-02-16T05:58:32.390Z,8.00
2019-02-16T05:59:32.382Z,7.80
2019-02-16T06:00:32.380Z,7.60
2019-02-16T06:01:32.368Z,8.00
2019-02-16T06:02:32.356Z,7.90
2019-02-16T06:03:32.361Z,8.10
2019-02-16T06:04:32.338Z,7.20
2019-02-16T06:05:32.540Z,8.00
2019-02-16T06:06:32.319Z,8.00
2019-02-16T06:07:32.540Z,8.00
2019-02-16T06:08:32.307Z,7.90
2019-02-16T06:09:32.510Z,7.80
2019-02-16T06:10:32.296Z,7.90
2019-02-16T06:11:32.512Z,8.10
2019-02-16T06:12:32.279Z,8.20
2019-02-16T06:13:32.291Z,8.40
2019-02-16T06:14:32.250Z,8.50
2019-02-16T06:15:32.264Z,7.90
2019-02-16T06:16:32.232Z,7.60
2019-02-16T06:17:32.239Z,7.90
2019-02-16T06:18:32.222Z,7.90
2019-02-16T06:19:32.414Z,7.90
2019-02-16T06:20:32.198Z,8.60
2019-02-16T06:21:32.190Z,8.50
2019-02-16T06:22:32.181Z,8.40
2019-02-16T06:23:32.380Z,8.20
2019-02-16T06:24:32.180Z,7.60
2019-02-16T06:25:32.163Z,7.40
2019-02-16T06:26:32.361Z,7.00
2019-02-16T06:27:32.143Z,7.80
2019-02-16T06:28:32.144Z,7.40
2019-02-16T06:29:32.127Z,8.10
2019-02-16T06:30:32.130Z,7.50
2019-02-16T06:31:32.118Z,8.20
2019-02-16T06:32:32.101Z,8.40
2019-02-16T06:33:32.290Z,7.90
2019-02-16T06:34:32.539Z,8.40
2019-02-16T06:35:32.077Z,8.10
2019-02-16T06:36:32.265Z,8.40
2019-02-16T06:37:32.074Z,8.60
2019-02-16T06:38:32.053Z,8.40
2019-02-16T06:39:32.055Z,8.50
2019-02-16T06:40:32.238Z,8.10
2019-02-16T06:41:32.029Z,8.20
2019-02-16T06:42:32.012Z,8.40
2019-02-16T06:43:32.011Z,8.20
2019-02-16T06:44:32.006Z,8.10
2019-02-16T06:45:32.196Z,9.30
2019-02-16T06:46:31.984Z,9.40
2019-02-16T06:47:31.978Z,9.20
2019-02-16T06:48:31.957Z,8.70
2019-02-16T06:49:32.177Z,8.70
2019-02-16T06:50:36.860Z,9.20
2019-02-16T06:51:31.936Z,8.80
2019-02-16T06:52:32.128Z,8.50
2019-02-16T06:53:31.913Z,8.20
2019-02-16T06:54:31.919Z,8.40
2019-02-16T06:55:31.903Z,8.40
2019-02-16T06:56:31.893Z,9.00
2019-02-16T06:57:31.893Z,8.80
2019-02-16T06:58:31.901Z,9.60
2019-02-16T06:59:31.861Z,10.30
2019-02-16T07:00:31.854Z,9.80
2019-02-16T07:01:33.187Z,10.00
2019-02-16T07:02:31.884Z,9.50
2019-02-16T07:03:32.063Z,9.60
2019-02-16T07:04:32.051Z,9.10
2019-02-16T07:05:31.836Z,8.70
2019-02-16T07:06:31.837Z,8.50
2019-02-16T07:07:31.801Z,9.10
2019-02-16T07:08:31.787Z,8.30
2019-02-16T07:09:31.987Z,8.60
2019-02-16T07:10:31.775Z,8.50
2019-02-16T07:11:31.787Z,8.50
2019-02-16T07:12:31.766Z,8.10
2019-02-16T07:13:31.755Z,7.90
2019-02-16T07:14:31.982Z,8.00
2019-02-16T07:15:31.748Z,7.60
2019-02-16T07:16:31.728Z,7.90
2019-02-16T07:17:31.721Z,8.50
2019-02-16T07:18:31.915Z,9.20
2019-02-16T07:19:31.706Z,9.00
2019-02-16T07:20:31.695Z,8.80
2019-02-16T07:21:31.690Z,9.20
2019-02-16T07:22:31.688Z,8.90
2019-02-16T07:23:31.884Z,10.20
2019-02-16T07:24:31.654Z,9.30
2019-02-16T07:25:31.661Z,9.70
2019-02-16T07:26:31.643Z,9.00
2019-02-16T07:27:31.617Z,8.40
2019-02-16T07:28:31.611Z,9.00
2019-02-16T07:29:31.597Z,9.00
2019-02-16T07:30:31.600Z,9.20
2019-02-16T07:31:31.804Z,9.20
2019-02-16T07:32:31.583Z,8.90
2019-02-16T07:33:31.578Z,9.90
2019-02-16T07:34:31.577Z,9.10
2019-02-16T07:35:31.558Z,9.10
2019-02-16T07:36:31.544Z,9.50
2019-02-16T07:37:31.591Z,9.60
2019-02-16T07:38:31.582Z,9.60
2019-02-16T07:39:31.520Z,9.70
2019-02-16T07:40:31.510Z,10.10
2019-02-16T07:41:31.506Z,10.40
2019-02-16T07:42:31.490Z,11.50
2019-02-16T07:43:31.492Z,10.50
2019-02-16T07:44:31.475Z,10.80
2019-02-16T07:45:31.461Z,10.60
2019-02-16T07:46:31.451Z,11.00
2019-02-16T07:47:31.450Z,11.00
2019-02-16T07:48:31.443Z,10.60
2019-02-16T07:49:31.432Z,10.50
2019-02-16T07:50:31.418Z,10.50
2019-02-16T07:51:31.411Z,10.70
2019-02-16T07:52:31.407Z,10.30
2019-02-16T07:53:31.745Z,9.90
2019-02-16T07:54:31.400Z,10.80
2019-02-16T07:55:31.412Z,11.30
2019-02-16T07:56:31.401Z,11.00
2019-02-16T07:57:31.365Z,11.60
2019-02-16T07:58:31.354Z,10.90
2019-02-16T07:59:31.338Z,10.70
2019-02-16T08:00:31.356Z,11.40
2019-02-16T08:01:31.327Z,12.10
2019-02-16T08:02:31.335Z,11.30
2019-02-16T08:03:31.306Z,11.10
2019-02-16T08:04:31.309Z,10.50
2019-02-16T08:05:31.304Z,9.80
2019-02-16T08:06:31.276Z,11.00
2019-02-16T08:07:31.273Z,11.10
2019-02-16T08:08:31.269Z,11.20
2019-02-16T08:09:31.288Z,11.00
2019-02-16T08:10:31.245Z,10.50
2019-02-16T08:11:31.238Z,10.40
2019-02-16T08:12:31.243Z,10.70
2019-02-16T08:13:31.232Z,10.70
2019-02-16T08:14:31.219Z,11.70
2019-02-16T08:15:31.212Z,11.00
2019-02-16T08:16:31.202Z,10.40
2019-02-16T08:17:31.192Z,10.40
2019-02-16T08:18:31.193Z,9.70
2019-02-16T08:19:31.175Z,9.80
2019-02-16T08:20:31.162Z,10.20
2019-02-16T08:21:31.361Z,10.00
2019-02-16T08:22:31.148Z,10.20
2019-02-16T08:23:40.007Z,11.00
2019-02-16T08:24:31.133Z,10.20
2019-02-16T08:25:31.126Z,11.00
2019-02-16T08:26:31.322Z,10.70
2019-02-16T08:27:31.111Z,10.50
2019-02-16T08:28:31.119Z,10.00
2019-02-16T08:29:31.317Z,10.30
2019-02-16T08:30:31.084Z,9.90
2019-02-16T08:31:31.076Z,9.70
2019-02-16T08:32:31.075Z,9.10
2019-02-16T08:33:31.076Z,9.80
2019-02-16T08:34:31.054Z,9.00
2019-02-16T08:35:31.054Z,9.00
2019-02-16T08:36:31.540Z,9.20
2019-02-16T08:37:31.053Z,9.50
2019-02-16T08:38:31.034Z,9.10
2019-02-16T08:39:31.020Z,10.00
2019-02-16T08:40:31.010Z,10.00
2019-02-16T08:41:31.008Z,9.50
2019-02-16T08:42:31.058Z,9.20
2019-02-16T08:43:30.979Z,9.80
2019-02-16T08:44:30.975Z,9.70
2019-02-16T08:45:30.981Z,9.10
2019-02-16T08:46:30.978Z,9.50
2019-02-16T08:47:30.986Z,10.20
2019-02-16T08:48:30.955Z,9.10
2019-02-16T08:49:30.940Z,8.20
2019-02-16T08:50:30.946Z,8.40
2019-02-16T08:51:30.952Z,7.70
2019-02-16T08:52:30.926Z,8.40
2019-02-16T08:53:30.917Z,7.80
2019-02-16T08:54:30.924Z,7.90
2019-02-16T08:55:30.931Z,8.60
2019-02-16T08:56:30.899Z,7.60
2019-02-16T08:57:30.887Z,8.00
2019-02-16T08:58:30.911Z,7.70
2019-02-16T08:59:30.928Z,7.50
2019-02-16T09:00:30.917Z,8.00
2019-02-16T09:01:30.997Z,7.80
2019-02-16T09:02:30.881Z,8.00
2019-02-16T09:03:30.920Z,7.40
2019-02-16T09:04:30.838Z,7.00
2019-02-16T09:05:30.853Z,7.10
2019-02-16T09:06:30.823Z,7.40
2019-02-16T09:07:30.816Z,7.00
2019-02-16T09:08:30.900Z,6.80
2019-02-16T09:09:30.806Z,6.70
2019-02-16T09:10:30.860Z,7.20
2019-02-16T09:11:30.789Z,7.60
2019-02-16T09:12:30.777Z,7.60
2019-02-16T09:13:30.777Z,6.90
2019-02-16T09:14:30.773Z,7.00
2019-02-16T09:15:30.765Z,7.50
2019-02-16T09:16:30.749Z,6.80
2019-02-16T09:17:30.750Z,7.20
2019-02-16T09:18:30.740Z,7.70
2019-02-16T09:19:30.730Z,7.40
2019-02-16T09:20:30.729Z,7.30
2019-02-16T09:21:30.727Z,7.00
2019-02-16T09:22:30.722Z,7.20
2019-02-16T09:23:30.705Z,6.90
2019-02-16T09:24:30.700Z,6.70
2019-02-16T09:25:30.694Z,7.20
2019-02-16T09:26:30.714Z,6.60
2019-02-16T09:27:30.703Z,7.70
2019-02-16T09:28:30.692Z,7.00
2019-02-16T09:29:30.700Z,6.90
2019-02-16T09:30:30.672Z,7.30
2019-02-16T09:31:30.669Z,7.10
2019-02-16T09:32:30.657Z,7.00
2019-02-16T09:33:30.687Z,7.30
2019-02-16T09:34:30.658Z,6.60
2019-02-16T09:35:30.632Z,7.30
2019-02-16T09:36:30.641Z,7.40
2019-02-16T09:37:30.712Z,6.90
2019-02-16T09:38:30.623Z,7.20
2019-02-16T09:39:30.618Z,7.60
2019-02-16T09:40:30.613Z,7.40
2019-02-16T09:41:30.608Z,7.30
2019-02-16T09:42:30.605Z,7.40
2019-02-16T09:43:30.579Z,8.20
2019-02-16T09:44:30.579Z,7.70
2019-02-16T09:45:30.567Z,8.10
2019-02-16T09:46:30.566Z,8.00
2019-02-16T09:47:30.557Z,8.30
2019-02-16T09:48:30.556Z,8.10
2019-02-16T09:49:30.553Z,7.60
2019-02-16T09:50:30.542Z,8.40
2019-02-16T09:51:30.534Z,8.00
2019-02-16T09:52:30.525Z,8.40
2019-02-16T09:53:30.547Z,8.30
2019-02-16T09:54:30.534Z,9.00
2019-02-16T09:55:30.541Z,9.00
2019-02-16T09:56:30.521Z,8.60
2019-02-16T09:57:30.720Z,7.80
2019-02-16T09:58:30.504Z,7.70
2019-02-16T09:59:30.498Z,8.30
2019-02-16T10:00:30.494Z,9.10
2019-02-16T10:01:30.506Z,8.20
2019-02-16T10:02:30.487Z,8.70
2019-02-16T10:03:30.490Z,7.90
2019-02-16T10:04:30.467Z,8.50
2019-02-16T10:05:30.475Z,8.40
2019-02-16T10:06:30.458Z,8.50
2019-02-16T10:07:30.641Z,7.80
2019-02-16T10:08:30.463Z,8.10
2019-02-16T10:09:30.447Z,6.90
2019-02-16T10:10:30.430Z,7.80
2019-02-16T10:11:30.426Z,8.10
2019-02-16T10:12:30.425Z,8.00
2019-02-16T10:13:30.411Z,8.80
2019-02-16T10:14:30.432Z,8.60
2019-02-16T10:15:30.391Z,8.60
2019-02-16T10:16:30.391Z,8.30
2019-02-16T10:17:30.392Z,8.10
2019-02-16T10:18:30.382Z,7.90
2019-02-16T10:19:30.369Z,8.20
2019-02-16T10:20:30.368Z,8.10
2019-02-16T10:21:30.366Z,6.80
2019-02-16T10:22:30.350Z,7.20
2019-02-16T10:23:30.353Z,6.70
2019-02-16T10:24:30.345Z,7.30
2019-02-16T10:25:30.343Z,7.50
2019-02-16T10:26:30.346Z,8.00
2019-02-16T10:27:30.325Z,7.20
2019-02-16T10:28:30.522Z,7.60
2019-02-16T10:29:30.537Z,7.00
2019-02-16T10:30:30.330Z,7.40
2019-02-16T10:31:30.530Z,7.20
2019-02-16T10:32:30.300Z,7.40
2019-02-16T10:33:30.291Z,7.50
2019-02-16T10:34:30.303Z,7.20
2019-02-16T10:35:30.296Z,7.70
2019-02-16T10:36:30.282Z,7.70
2019-02-16T10:37:30.491Z,7.40
2019-02-16T10:38:30.269Z,7.40
2019-02-16T10:39:30.274Z,7.50
2019-02-16T10:40:30.273Z,8.10
2019-02-16T10:41:30.251Z,8.00
2019-02-16T10:42:30.460Z,8.10
2019-02-16T10:43:30.469Z,8.00
2019-02-16T10:44:30.452Z,8.00
2019-02-16T10:45:30.229Z,8.00
2019-02-16T10:46:30.427Z,7.40
2019-02-16T10:47:30.228Z,8.00
2019-02-16T10:48:30.413Z,8.40
2019-02-16T10:49:30.213Z,7.90
2019-02-16T10:50:30.215Z,7.50
2019-02-16T10:51:30.196Z,8.00
2019-02-16T10:52:30.208Z,8.20
2019-02-16T10:53:30.181Z,7.60
2019-02-16T10:54:30.192Z,7.80
2019-02-16T10:55:30.379Z,7.40
2019-02-16T10:56:30.186Z,7.50
2019-02-16T10:57:30.387Z,8.10
2019-02-16T10:58:30.170Z,7.60
2019-02-16T10:59:30.158Z,8.30
2019-02-16T11:00:30.177Z,8.60
2019-02-16T11:01:30.156Z,7.70
2019-02-16T11:02:30.150Z,7.70
2019-02-16T11:03:30.341Z,8.10
2019-02-16T11:04:37.968Z,8.20
2019-02-16T11:05:30.121Z,8.30
2019-02-16T11:06:30.322Z,8.30
2019-02-16T11:07:30.110Z,8.40
2019-02-16T11:08:31.792Z,8.40
2019-02-16T11:09:30.103Z,8.50
2019-02-16T11:10:30.093Z,7.90
2019-02-16T11:11:30.085Z,8.40
2019-02-16T11:12:31.659Z,7.90
2019-02-16T11:13:30.097Z,8.60
2019-02-16T11:14:30.094Z,8.50
2019-02-16T11:15:30.556Z,8.50
2019-02-16T11:16:30.278Z,8.20
2019-02-16T11:17:30.293Z,8.60
2019-02-16T11:18:30.055Z,8.10
2019-02-16T11:19:30.059Z,8.50
2019-02-16T11:20:30.039Z,8.50
2019-02-16T11:21:30.237Z,8.70
2019-02-16T11:22:30.041Z,8.50
2019-02-16T11:23:30.229Z,8.70
2019-02-16T11:24:36.120Z,8.20
2019-02-16T11:25:30.044Z,8.00
2019-02-16T11:26:30.023Z,8.60
2019-02-16T11:27:30.017Z,8.60
2019-02-16T11:28:30.014Z,8.40
2019-02-16T11:29:30.011Z,9.00
2019-02-16T11:30:30.000Z,9.60
2019-02-16T11:31:29.995Z,9.70
2019-02-16T11:32:30.003Z,9.00
2019-02-16T11:33:29.974Z,8.80
2019-02-16T11:34:29.993Z,8.60
2019-02-16T11:35:29.991Z,9.50
2019-02-16T11:36:29.967Z,9.70
2019-02-16T11:37:29.962Z,9.50
2019-02-16T11:38:29.965Z,9.00
2019-02-16T11:39:29.948Z,9.30
2019-02-16T11:40:30.163Z,9.00
2019-02-16T11:41:29.948Z,9.00
2019-02-16T11:42:30.141Z,9.00
2019-02-16T11:43:29.944Z,9.40
2019-02-16T11:44:29.940Z,9.70
2019-02-16T11:45:29.932Z,9.80
2019-02-16T11:46:29.906Z,9.90
2019-02-16T11:47:29.924Z,9.70
2019-02-16T11:48:29.905Z,10.10
2019-02-16T11:49:30.118Z,10.60
2019-02-16T11:50:29.915Z,10.50
2019-02-16T11:51:29.909Z,10.60
2019-02-16T11:52:30.089Z,10.80
2019-02-16T11:53:29.897Z,10.80
2019-02-16T11:54:30.101Z,9.90
2019-02-16T11:55:30.765Z,10.00
2019-02-16T11:56:29.879Z,10.30
2019-02-16T11:57:29.868Z,10.00
2019-02-16T11:58:29.876Z,10.10
2019-02-16T11:59:29.865Z,10.90
2019-02-16T12:00:29.847Z,10.10
2019-02-16T12:01:29.835Z,10.40
2019-02-16T12:02:29.845Z,9.90
2019-02-16T12:03:29.853Z,10.30
2019-02-16T12:04:29.827Z,10.50
2019-02-16T12:05:29.847Z,11.10
2019-02-16T12:06:29.823Z,11.40
2019-02-16T12:07:29.810Z,11.80
2019-02-16T12:08:29.806Z,11.70
2019-02-16T12:09:29.811Z,12.10
2019-02-16T12:10:29.805Z,11.50
2019-02-16T12:11:29.800Z,10.70
2019-02-16T12:12:29.801Z,11.20
2019-02-16T12:13:29.783Z,11.90
2019-02-16T12:14:29.779Z,10.70
2019-02-16T12:15:29.791Z,11.40
2019-02-16T12:16:29.770Z,11.20
2019-02-16T12:17:29.756Z,11.80
2019-02-16T12:18:29.766Z,12.10
2019-02-16T12:19:29.752Z,11.80
2019-02-16T12:20:33.715Z,12.00
2019-02-16T12:21:29.755Z,12.80
2019-02-16T12:22:29.740Z,11.90
2019-02-16T12:23:29.749Z,12.20
2019-02-16T12:24:29.754Z,12.10
2019-02-16T12:25:29.733Z,12.70
2019-02-16T12:26:29.729Z,12.80
2019-02-16T12:27:29.733Z,11.90
2019-02-16T12:28:29.722Z,11.60
2019-02-16T12:29:29.710Z,12.20
2019-02-16T12:30:29.710Z,11.90
2019-02-16T12:31:29.710Z,12.60
2019-02-16T12:32:29.689Z,11.90
2019-02-16T12:33:29.683Z,12.60
2019-02-16T12:34:29.679Z,11.60
2019-02-16T12:35:29.672Z,11.70
2019-02-16T12:36:29.673Z,12.20
2019-02-16T12:37:29.686Z,12.10
2019-02-16T12:38:29.658Z,12.20
2019-02-16T12:39:29.669Z,12.00
2019-02-16T12:40:29.653Z,12.60
2019-02-16T12:41:29.650Z,12.00
2019-02-16T12:42:29.653Z,12.50
2019-02-16T12:43:29.634Z,12.20
2019-02-16T12:44:29.629Z,11.80
2019-02-16T12:45:29.630Z,12.50
2019-02-16T12:46:29.650Z,12.40
2019-02-16T12:47:29.636Z,12.40
2019-02-16T12:48:29.617Z,12.60
2019-02-16T12:49:29.615Z,11.90
2019-02-16T12:50:29.632Z,12.20
2019-02-16T12:51:29.601Z,12.10
2019-02-16T12:52:29.595Z,12.20
2019-02-16T12:53:29.599Z,12.10
2019-02-16T12:54:29.588Z,12.10
2019-02-16T12:55:29.588Z,12.20
2019-02-16T12:56:29.779Z,12.00
2019-02-16T12:57:29.585Z,12.50
2019-02-16T12:58:29.783Z,11.90
2019-02-16T12:59:29.564Z,12.70
2019-02-16T13:00:29.768Z,12.50
2019-02-16T13:01:29.570Z,11.80
2019-02-16T13:02:29.573Z,12.20
2019-02-16T13:03:29.757Z,11.60
2019-02-16T13:04:29.549Z,12.10
2019-02-16T13:05:29.556Z,12.30
2019-02-16T13:06:29.549Z,13.00
2019-02-16T13:07:29.542Z,11.80
2019-02-16T13:08:29.534Z,12.00
2019-02-16T13:09:29.521Z,12.40
2019-02-16T13:10:29.519Z,12.30
2019-02-16T13:11:29.707Z,11.50
2019-02-16T13:12:29.715Z,11.60
2019-02-16T13:13:29.505Z,12.10